WXM80 ListenWXM80 Stop

You find our weather info also at:

UK Metoffice

WeatherCloud

Weather Underground

Northeastern Weather Network

AWEKAS

Citizen Weather Observer Program (CWOP)

HAMweather, WeatherForYou, PWS Weather


Weather Underground History page Text

Daily Summary for March 1, 2017 Units:  English    Metric   Both
« Previous Day
Next Day »
Daily Weekly Monthly Yearly Custom
  High: Low: Average:
Temperature: 62.0 °F 52.2 °F 56.4 °F
Dew Point: 58.4 °F 50.8 °F 53.9 °F
Humidity: 97 % 78 % 92 %
Wind Speed: 10.1 mph 0.0 mph 3.9 mph
Wind Gust: 18.4 mph - -
Wind:- - SSW
Pressure: 29.97 in 29.37 in -
Precipitation: 0.03 in    
Historical Graphs
 
 
Tabular Data for March 1, 2017
Time Temperature Dew Point Pressure Wind Wind Speed Wind Gust Humidity Rainfall Rate (Hourly)
00:00 52.2 °F 50.8 °F 29.97 in SSW 1.1 mph 5.8 mph 95 % 0.00 in
00:05 52.3 °F 50.9 °F 29.97 in South 2.0 mph 4.6 mph 95 % 0.00 in
00:10 52.4 °F 51.0 °F 29.96 in SSW 0.5 mph 4.6 mph 95 % 0.00 in
00:15 52.4 °F 51.0 °F 29.96 in South 3.2 mph 6.9 mph 95 % 0.00 in
00:20 52.5 °F 51.1 °F 29.95 in SSW 4.1 mph 8.1 mph 95 % 0.00 in
00:25 52.6 °F 51.2 °F 29.95 in SSW 2.4 mph 7.0 mph 95 % 0.00 in
00:30 52.7 °F 51.3 °F 29.95 in SSE 3.5 mph 5.8 mph 95 % 0.00 in
00:36 52.8 °F 51.4 °F 29.94 in South 3.7 mph 6.9 mph 95 % 0.00 in
00:41 52.8 °F 51.4 °F 29.94 in South 3.3 mph 5.8 mph 95 % 0.00 in
00:46 53.0 °F 51.6 °F 29.94 in SSE 2.8 mph 5.8 mph 95 % 0.00 in
00:51 53.0 °F 51.6 °F 29.94 in South 1.4 mph 5.8 mph 95 % 0.00 in
00:56 53.1 °F 51.7 °F 29.94 in South 1.8 mph 6.0 mph 95 % 0.00 in
00:57 53.2 °F 51.8 °F 29.94 in South 3.3 mph 6.9 mph 95 % 0.00 in
01:02 53.2 °F 51.8 °F 29.93 in South 4.1 mph 5.8 mph 95 % 0.00 in
01:07 53.3 °F 51.9 °F 29.93 in SSW 2.9 mph 5.8 mph 95 % 0.00 in
01:12 53.3 °F 51.9 °F 29.93 in SSE 5.6 mph 9.2 mph 95 % 0.00 in
01:17 53.3 °F 51.9 °F 29.93 in SSW 5.0 mph 10.4 mph 95 % 0.00 in
01:22 53.3 °F 51.9 °F 29.93 in SSW 4.5 mph 11.5 mph 95 % 0.00 in
01:27 53.3 °F 51.9 °F 29.93 in SSW 2.4 mph 5.8 mph 95 % 0.00 in
01:32 53.4 °F 52.0 °F 29.92 in SSW 4.9 mph 10.4 mph 95 % 0.00 in
01:37 53.4 °F 52.0 °F 29.92 in SSW 3.3 mph 8.1 mph 95 % 0.00 in
01:43 53.5 °F 52.1 °F 29.92 in SSW 4.4 mph 10.4 mph 95 % 0.00 in
01:48 53.5 °F 52.1 °F 29.92 in SSW 4.0 mph 5.8 mph 95 % 0.00 in
01:53 53.6 °F 52.2 °F 29.91 in South 3.9 mph 5.8 mph 95 % 0.00 in
01:58 53.6 °F 52.2 °F 29.92 in WSW 6.4 mph 9.0 mph 95 % 0.00 in
02:03 53.7 °F 52.3 °F 29.91 in SSW 6.0 mph 13.0 mph 95 % 0.00 in
02:08 53.8 °F 52.4 °F 29.91 in South 3.0 mph 7.0 mph 95 % 0.00 in
02:13 53.8 °F 52.4 °F 29.90 in SSW 3.0 mph 9.0 mph 95 % 0.00 in
02:18 53.9 °F 52.5 °F 29.90 in SSW 3.0 mph 8.0 mph 95 % 0.00 in
02:23 53.9 °F 52.5 °F 29.89 in South 5.0 mph 9.0 mph 95 % 0.00 in
02:28 53.9 °F 52.5 °F 29.88 in South 3.0 mph 10.0 mph 95 % 0.00 in
02:33 53.9 °F 52.5 °F 29.87 in South 6.0 mph 13.0 mph 95 % 0.00 in
02:38 53.9 °F 52.5 °F 29.87 in SSW 5.0 mph 9.0 mph 95 % 0.00 in
02:43 53.9 °F 52.5 °F 29.87 in South 3.0 mph 9.0 mph 95 % 0.00 in
02:48 53.9 °F 52.5 °F 29.86 in South 4.0 mph 7.0 mph 95 % 0.00 in
02:53 53.9 °F 52.5 °F 29.86 in South 3.0 mph 12.0 mph 95 % 0.00 in
02:58 53.9 °F 52.5 °F 29.85 in South 4.0 mph 9.2 mph 95 % 0.00 in
03:03 53.9 °F 52.8 °F 29.85 in SSE 3.7 mph 11.5 mph 96 % 0.00 in
03:08 53.9 °F 52.5 °F 29.85 in SSW 3.3 mph 6.0 mph 95 % 0.00 in
03:13 53.9 °F 52.5 °F 29.85 in SSW 3.0 mph 8.1 mph 95 % 0.00 in
03:18 53.9 °F 52.5 °F 29.84 in South 5.8 mph 10.4 mph 95 % 0.00 in
03:23 53.9 °F 52.8 °F 29.84 in South 1.5 mph 8.1 mph 96 % 0.00 in
03:28 54.0 °F 52.9 °F 29.84 in SSW 6.0 mph 11.5 mph 96 % 0.00 in
03:33 54.0 °F 52.9 °F 29.84 in SSW 4.9 mph 8.1 mph 96 % 0.00 in
03:38 54.0 °F 52.9 °F 29.84 in South 6.3 mph 8.1 mph 96 % 0.00 in
03:43 54.0 °F 52.9 °F 29.83 in South 3.8 mph 10.4 mph 96 % 0.00 in
03:48 54.1 °F 53.0 °F 29.84 in South 5.3 mph 6.9 mph 96 % 0.00 in
03:53 54.1 °F 53.0 °F 29.84 in South 2.6 mph 5.8 mph 96 % 0.00 in
03:58 54.1 °F 53.0 °F 29.84 in South 5.5 mph 8.1 mph 96 % 0.00 in
04:04 54.2 °F 53.1 °F 29.85 in SW 5.6 mph 9.2 mph 96 % 0.00 in
04:09 54.2 °F 53.1 °F 29.85 in SW 6.4 mph 11.5 mph 96 % 0.00 in
04:14 54.2 °F 53.1 °F 29.85 in SSW 2.8 mph 3.5 mph 96 % 0.00 in
04:19 54.2 °F 53.1 °F 29.84 in South 4.4 mph 5.8 mph 96 % 0.00 in
04:24 54.2 °F 53.1 °F 29.84 in SW 5.1 mph 6.9 mph 96 % 0.00 in
04:29 54.2 °F 53.1 °F 29.84 in South 2.8 mph 4.0 mph 96 % 0.00 in
04:34 54.1 °F 53.0 °F 29.84 in South 2.9 mph 5.0 mph 96 % 0.00 in
04:39 54.1 °F 53.0 °F 29.83 in SSW 4.0 mph 7.0 mph 96 % 0.00 in
04:44 54.0 °F 52.9 °F 29.83 in South 4.6 mph 8.1 mph 96 % 0.00 in
04:49 53.9 °F 52.8 °F 29.83 in SSW 2.7 mph 6.9 mph 96 % 0.00 in
04:54 53.9 °F 52.8 °F 29.83 in SSW 4.2 mph 6.9 mph 96 % 0.00 in
04:59 53.8 °F 52.7 °F 29.82 in SW 3.6 mph 5.8 mph 96 % 0.00 in
05:04 53.8 °F 52.7 °F 29.83 in South 2.2 mph 3.5 mph 96 % 0.00 in
05:09 53.7 °F 52.6 °F 29.83 in SSW 5.1 mph 8.1 mph 96 % 0.00 in
05:14 53.8 °F 52.7 °F 29.82 in SSW 2.6 mph 5.8 mph 96 % 0.00 in
05:19 53.8 °F 52.7 °F 29.82 in SSW 3.2 mph 4.6 mph 96 % 0.00 in
05:24 53.9 °F 52.8 °F 29.81 in SSW 4.7 mph 6.9 mph 96 % 0.00 in
05:30 53.9 °F 52.8 °F 29.81 in South 3.0 mph 5.8 mph 96 % 0.00 in
05:35 54.0 °F 52.9 °F 29.81 in South 2.0 mph 4.6 mph 96 % 0.00 in
05:40 54.0 °F 52.9 °F 29.81 in South 2.7 mph 3.5 mph 96 % 0.00 in
05:41 54.0 °F 52.9 °F 29.81 in South 1.4 mph 4.6 mph 96 % 0.00 in
05:46 54.0 °F 52.9 °F 29.80 in South 1.3 mph 3.5 mph 96 % 0.00 in
05:51 54.0 °F 52.9 °F 29.80 in SSE 1.6 mph 3.5 mph 96 % 0.00 in
05:56 53.9 °F 52.8 °F 29.80 in South 0.5 mph 3.5 mph 96 % 0.00 in
06:01 53.9 °F 52.8 °F 29.80 in South 1.4 mph 3.5 mph 96 % 0.00 in
06:06 53.9 °F 52.8 °F 29.80 in South 2.3 mph 3.5 mph 96 % 0.00 in
06:11 53.9 °F 52.8 °F 29.80 in South 0.4 mph 3.0 mph 96 % 0.00 in
06:16 53.8 °F 52.7 °F 29.79 in Calm   2.3 mph 96 % 0.00 in
06:21 53.9 °F 52.8 °F 29.78 in South 0.4 mph 1.2 mph 96 % 0.00 in
06:26 53.9 °F 52.8 °F 29.77 in South 0.3 mph 3.5 mph 96 % 0.00 in
06:31 54.0 °F 52.9 °F 29.77 in South 0.6 mph 2.3 mph 96 % 0.00 in
06:36 54.0 °F 52.9 °F 29.76 in South 2.3 mph 5.0 mph 96 % 0.00 in
06:41 54.0 °F 52.9 °F 29.76 in South 1.7 mph 3.5 mph 96 % 0.00 in
06:46 54.2 °F 53.1 °F 29.76 in South 3.9 mph 8.1 mph 96 % 0.00 in
06:51 54.3 °F 53.5 °F 29.76 in SW 2.9 mph 4.0 mph 97 % 0.00 in
06:56 54.5 °F 53.7 °F 29.76 in SW 2.5 mph 3.5 mph 97 % 0.00 in
07:01 54.6 °F 53.8 °F 29.76 in South 0.8 mph 3.5 mph 97 % 0.00 in
07:06 54.7 °F 53.9 °F 29.76 in South 1.8 mph 3.5 mph 97 % 0.00 in
07:11 54.7 °F 53.9 °F 29.75 in South 2.2 mph 5.8 mph 97 % 0.00 in
07:17 54.7 °F 53.9 °F 29.75 in South 3.2 mph 5.8 mph 97 % 0.00 in
07:22 54.7 °F 53.9 °F 29.75 in SSW 1.8 mph 4.6 mph 97 % 0.00 in
07:27 54.6 °F 53.8 °F 29.75 in SSW 3.5 mph 6.9 mph 97 % 0.00 in
07:32 54.6 °F 53.5 °F 29.75 in SSW 3.8 mph 4.6 mph 96 % 0.00 in
07:37 54.5 °F 53.4 °F 29.74 in SSE 3.7 mph 5.8 mph 96 % 0.00 in
07:42 54.2 °F 53.1 °F 29.74 in South 2.9 mph 4.6 mph 96 % 0.00 in
07:47 54.1 °F 53.0 °F 29.75 in South 3.4 mph 4.6 mph 96 % 0.00 in
07:52 53.9 °F 52.8 °F 29.74 in South 2.3 mph 6.9 mph 96 % 0.00 in
07:57 53.7 °F 52.6 °F 29.73 in SSE 0.8 mph 3.5 mph 96 % 0.00 in
08:02 53.6 °F 52.5 °F 29.74 in SSE 2.2 mph 3.5 mph 96 % 0.00 in
08:07 53.5 °F 52.4 °F 29.73 in SE 0.4 mph 3.5 mph 96 % 0.00 in
08:12 53.3 °F 52.2 °F 29.73 in SSE 2.6 mph 5.0 mph 96 % 0.00 in
08:17 53.2 °F 52.1 °F 29.73 in SSE 0.9 mph 3.0 mph 96 % 0.00 in
08:22 53.2 °F 52.1 °F 29.73 in South 1.9 mph 4.6 mph 96 % 0.00 in
08:27 53.2 °F 52.1 °F 29.73 in South 0.5 mph 3.5 mph 96 % 0.00 in
08:32 53.3 °F 52.2 °F 29.72 in SSE 0.2 mph 2.3 mph 96 % 0.00 in
08:37 53.3 °F 52.2 °F 29.73 in South 1.0 mph 3.5 mph 96 % 0.00 in
08:42 53.3 °F 52.2 °F 29.73 in South 0.4 mph 2.3 mph 96 % 0.00 in
08:47 53.4 °F 52.3 °F 29.73 in Calm     96 % 0.00 in
08:52 53.5 °F 52.4 °F 29.72 in SSE 1.1 mph 2.3 mph 96 % 0.00 in
08:57 53.6 °F 52.5 °F 29.72 in SW 2.2 mph 3.5 mph 96 % 0.00 in
09:02 53.7 °F 52.9 °F 29.72 in SW 2.5 mph 3.5 mph 97 % 0.00 in
09:07 53.8 °F 53.0 °F 29.70 in SSE 2.6 mph 6.9 mph 97 % 0.00 in
09:12 53.8 °F 52.7 °F 29.70 in SSW 2.6 mph 4.6 mph 96 % 0.00 in
09:18 53.8 °F 52.7 °F 29.70 in SSE 0.3 mph 2.0 mph 96 % 0.00 in
09:23 53.7 °F 52.6 °F 29.69 in SSE 2.3 mph 5.8 mph 96 % 0.00 in
09:28 53.6 °F 52.5 °F 29.68 in ESE 0.2 mph 2.3 mph 96 % 0.00 in
09:33 53.6 °F 52.5 °F 29.68 in SSE 1.6 mph 3.5 mph 96 % 0.00 in
09:38 53.6 °F 52.5 °F 29.69 in SSE 0.2 mph 1.2 mph 96 % 0.00 in
09:43 53.5 °F 52.4 °F 29.69 in SSW 1.6 mph 2.3 mph 96 % 0.00 in
09:48 53.5 °F 52.4 °F 29.69 in Calm   1.2 mph 96 % 0.00 in
09:53 53.5 °F 52.4 °F 29.69 in SSE 1.0 mph 2.3 mph 96 % 0.00 in
09:58 53.5 °F 52.4 °F 29.70 in South 0.5 mph 2.3 mph 96 % 0.00 in
10:03 53.5 °F 52.4 °F 29.70 in SW 0.1 mph 3.5 mph 96 % 0.00 in
10:08 53.6 °F 52.5 °F 29.70 in SW 4.9 mph 5.0 mph 96 % 0.00 in
10:13 53.6 °F 52.5 °F 29.69 in SSW 2.4 mph 4.6 mph 96 % 0.00 in
10:18 53.7 °F 52.6 °F 29.68 in SW 1.0 mph 4.0 mph 96 % 0.00 in
10:23 53.7 °F 52.6 °F 29.67 in WSW 1.0 mph 3.0 mph 96 % 0.00 in
10:28 53.7 °F 52.6 °F 29.67 in WSW 0.1 mph 2.3 mph 96 % 0.00 in
10:33 53.7 °F 52.6 °F 29.67 in WSW 1.0 mph 3.0 mph 96 % 0.00 in
10:38 53.8 °F 52.7 °F 29.67 in Calm   3.0 mph 96 % 0.00 in
10:43 53.8 °F 52.7 °F 29.69 in WSW 2.0 mph 5.0 mph 96 % 0.00 in
10:48 53.8 °F 52.7 °F 29.68 in WSW 1.0 mph 5.0 mph 96 % 0.00 in
10:53 53.8 °F 52.7 °F 29.68 in SW 1.0 mph 4.0 mph 96 % 0.00 in
10:58 53.8 °F 52.7 °F 29.67 in WSW 0.6 mph 4.6 mph 96 % 0.00 in
11:03 53.8 °F 52.7 °F 29.67 in WSW 0.5 mph 2.3 mph 96 % 0.00 in
11:08 53.9 °F 52.8 °F 29.67 in SW 0.2 mph 1.2 mph 96 % 0.00 in
11:09 53.9 °F 52.8 °F 29.67 in SW 0.7 mph 3.5 mph 96 % 0.00 in
11:14 54.1 °F 53.0 °F 29.67 in South 0.7 mph 2.3 mph 96 % 0.00 in
11:19 54.3 °F 53.2 °F 29.67 in South 2.4 mph 3.5 mph 96 % 0.00 in
11:24 54.5 °F 53.4 °F 29.67 in SSW 5.5 mph 10.4 mph 96 % 0.00 in
11:26 54.6 °F 53.5 °F 29.67 in SSW 5.3 mph 10.0 mph 96 % 0.00 in
11:31 54.6 °F 53.5 °F 29.66 in SW 0.7 mph 3.0 mph 96 % 0.00 in
11:36 54.7 °F 53.6 °F 29.65 in SW 3.1 mph 4.6 mph 96 % 0.01 in
11:41 54.8 °F 53.7 °F 29.65 in SSW 2.5 mph 3.5 mph 96 % 0.01 in
11:46 54.9 °F 53.8 °F 29.65 in SSW 3.6 mph 3.6 mph 96 % 0.01 in
11:51 55.0 °F 53.9 °F 29.65 in SSW 2.7 mph 4.6 mph 96 % 0.01 in
11:56 55.0 °F 53.9 °F 29.63 in SSE 1.0 mph 2.3 mph 96 % 0.01 in
12:01 55.0 °F 53.9 °F 29.61 in South 0.4 mph 3.5 mph 96 % 0.01 in
12:06 55.2 °F 54.1 °F 29.61 in SW 1.6 mph 3.5 mph 96 % 0.02 in
12:08 55.2 °F 54.1 °F 29.62 in SSW 1.7 mph 2.3 mph 96 % 0.02 in
12:13 55.3 °F 54.2 °F 29.61 in SW 0.6 mph 3.5 mph 96 % 0.02 in
12:18 55.5 °F 54.3 °F 29.60 in SW 1.0 mph 3.0 mph 96 % 0.00 in
12:23 55.7 °F 54.8 °F 29.57 in SSW 2.0 mph 5.0 mph 97 % 0.00 in
12:28 55.9 °F 55.1 °F 29.56 in South 1.0 mph 5.0 mph 97 % 0.00 in
12:33 56.2 °F 55.4 °F 29.57 in South 3.0 mph 4.6 mph 97 % 0.03 in
12:38 56.4 °F 55.5 °F 29.56 in South 2.0 mph 5.0 mph 97 % 0.00 in
12:43 56.4 °F 55.6 °F 29.56 in South 2.0 mph 9.0 mph 97 % 0.00 in
12:48 56.3 °F 55.5 °F 29.57 in South 2.0 mph 6.0 mph 97 % 0.00 in
12:53 56.4 °F 55.6 °F 29.56 in South 2.9 mph 3.5 mph 97 % 0.02 in
12:54 56.4 °F 55.6 °F 29.56 in South 2.7 mph 5.0 mph 97 % 0.02 in
12:59 56.5 °F 55.7 °F 29.56 in SSW 2.7 mph 7.0 mph 97 % 0.02 in
13:05 56.8 °F 56.0 °F 29.55 in South 3.4 mph 6.9 mph 97 % 0.01 in
13:10 57.4 °F 56.6 °F 29.55 in South 3.0 mph 4.6 mph 97 % 0.01 in
13:15 57.8 °F 57.0 °F 29.54 in SSW 3.0 mph 6.0 mph 97 % 0.01 in
13:20 58.2 °F 57.4 °F 29.54 in South 3.8 mph 6.9 mph 97 % 0.01 in
13:25 58.5 °F 57.7 °F 29.53 in South 4.3 mph 6.9 mph 97 % 0.01 in
13:30 59.3 °F 58.4 °F 29.53 in South 2.2 mph 5.8 mph 97 % 0.01 in
13:35 59.3 °F 57.9 °F 29.52 in South 5.7 mph 11.5 mph 95 % 0.00 in
13:40 59.4 °F 57.7 °F 29.52 in SSE 5.7 mph 11.5 mph 94 % 0.00 in
13:45 59.6 °F 57.6 °F 29.51 in South 6.2 mph 11.5 mph 93 % 0.00 in
13:50 59.7 °F 57.4 °F 29.51 in SSW 6.1 mph 10.4 mph 92 % 0.00 in
13:55 59.7 °F 57.1 °F 29.51 in South 6.9 mph 11.5 mph 91 % 0.00 in
14:00 59.6 °F 57.0 °F 29.51 in SSW 8.0 mph 13.8 mph 91 % 0.00 in
14:06 59.5 °F 56.9 °F 29.51 in South 4.6 mph 6.0 mph 91 % 0.00 in
14:08 59.5 °F 56.9 °F 29.51 in South 7.0 mph 16.0 mph 91 % 0.00 in
14:13 59.7 °F 57.1 °F 29.51 in SSW 5.0 mph 12.0 mph 91 % 0.00 in
14:18 59.7 °F 57.0 °F 29.51 in SSW 5.0 mph 10.0 mph 91 % 0.00 in
14:23 59.6 °F 57.0 °F 29.51 in SSW 5.0 mph 12.0 mph 91 % 0.00 in
14:28 59.6 °F 57.0 °F 29.51 in SSW 7.0 mph 13.0 mph 91 % 0.00 in
14:33 59.4 °F 56.8 °F 29.50 in SW 5.0 mph 9.2 mph 91 % 0.00 in
14:38 59.4 °F 56.8 °F 29.50 in SSW 3.0 mph 12.0 mph 91 % 0.00 in
14:43 59.5 °F 56.9 °F 29.49 in SSW 5.6 mph 8.1 mph 91 % 0.00 in
14:48 59.6 °F 57.0 °F 29.49 in South 6.0 mph 10.0 mph 91 % 0.00 in
14:53 59.7 °F 56.8 °F 29.49 in SSW 3.6 mph 10.4 mph 90 % 0.00 in
14:58 59.8 °F 56.9 °F 29.48 in SSW 3.4 mph 9.2 mph 90 % 0.00 in
15:03 60.0 °F 57.1 °F 29.48 in SW 5.8 mph 9.2 mph 90 % 0.00 in
15:08 60.2 °F 57.3 °F 29.48 in South 7.8 mph 11.5 mph 90 % 0.00 in
15:13 60.4 °F 57.5 °F 29.48 in SSW 3.7 mph 6.9 mph 90 % 0.00 in
15:18 60.8 °F 57.5 °F 29.48 in SSW 7.3 mph 11.5 mph 89 % 0.00 in
15:23 61.1 °F 57.5 °F 29.48 in SW 6.7 mph 13.8 mph 88 % 0.00 in
15:28 61.2 °F 57.6 °F 29.48 in SW 3.5 mph 9.2 mph 88 % 0.00 in
15:33 61.4 °F 57.8 °F 29.48 in SSW 9.1 mph 14.0 mph 88 % 0.00 in
15:38 61.6 °F 57.7 °F 29.48 in SW 8.3 mph 11.5 mph 87 % 0.00 in
15:43 61.7 °F 57.8 °F 29.48 in SSW 5.3 mph 10.4 mph 87 % 0.00 in
15:49 61.9 °F 58.0 °F 29.48 in SSW 6.8 mph 10.0 mph 87 % 0.00 in
15:54 62.0 °F 58.1 °F 29.48 in SSW 4.8 mph 8.1 mph 87 % 0.00 in
15:59 62.0 °F 57.8 °F 29.47 in South 2.0 mph 9.2 mph 86 % 0.00 in
16:04 62.0 °F 57.8 °F 29.46 in South 5.1 mph 10.0 mph 86 % 0.00 in
16:09 62.0 °F 57.8 °F 29.46 in SSW 3.2 mph 7.0 mph 86 % 0.00 in
16:14 61.9 °F 57.7 °F 29.45 in South 5.4 mph 9.2 mph 86 % 0.00 in
16:19 61.8 °F 57.6 °F 29.43 in South 5.5 mph 11.5 mph 86 % 0.00 in
16:24 61.5 °F 56.9 °F 29.40 in South 5.8 mph 10.4 mph 85 % 0.00 in
16:29 61.3 °F 57.1 °F 29.42 in SSW 7.3 mph 13.8 mph 86 % 0.00 in
16:34 61.1 °F 56.9 °F 29.40 in SSW 6.7 mph 9.2 mph 86 % 0.00 in
16:39 60.7 °F 56.5 °F 29.39 in SSW 5.5 mph 9.2 mph 86 % 0.00 in
16:44 60.3 °F 56.1 °F 29.39 in South 7.0 mph 10.4 mph 86 % 0.00 in
16:49 60.0 °F 55.8 °F 29.39 in South 8.5 mph 12.7 mph 86 % 0.00 in
16:54 59.6 °F 55.7 °F 29.39 in SSW 6.1 mph 13.8 mph 87 % 0.00 in
17:00 59.3 °F 55.4 °F 29.39 in SSW 6.7 mph 11.5 mph 87 % 0.00 in
17:05 59.2 °F 55.6 °F 29.39 in SSW 8.8 mph 12.7 mph 88 % 0.00 in
17:11 59.0 °F 55.4 °F 29.39 in SW 7.5 mph 11.5 mph 88 % 0.00 in
17:16 58.8 °F 55.3 °F 29.40 in South 5.8 mph 12.7 mph 88 % 0.00 in
17:21 58.6 °F 55.1 °F 29.40 in SW 8.1 mph 13.8 mph 88 % 0.00 in
17:26 58.4 °F 55.2 °F 29.40 in SSW 8.4 mph 16.1 mph 89 % 0.00 in
17:31 58.3 °F 55.1 °F 29.40 in SSE 7.8 mph 17.3 mph 89 % 0.00 in
17:36 58.4 °F 55.5 °F 29.40 in South 7.0 mph 17.3 mph 90 % 0.00 in
17:41 58.5 °F 55.6 °F 29.40 in SW 8.7 mph 15.0 mph 90 % 0.00 in
17:47 58.7 °F 55.8 °F 29.40 in South 6.6 mph 11.5 mph 90 % 0.00 in
17:52 58.7 °F 55.8 °F 29.40 in SW 8.1 mph 11.5 mph 90 % 0.00 in
17:57 58.9 °F 56.0 °F 29.41 in SSW 6.5 mph 11.5 mph 90 % 0.00 in
18:02 59.1 °F 56.2 °F 29.41 in South 7.0 mph 13.8 mph 90 % 0.00 in
18:07 59.2 °F 56.3 °F 29.41 in South 7.2 mph 11.5 mph 90 % 0.00 in
18:12 59.1 °F 55.9 °F 29.41 in South 6.5 mph 9.2 mph 89 % 0.00 in
18:17 59.1 °F 55.9 °F 29.42 in SSW 6.7 mph 12.7 mph 89 % 0.00 in
18:22 59.1 °F 55.9 °F 29.41 in SSW 7.1 mph 11.5 mph 89 % 0.00 in
18:27 59.3 °F 56.1 °F 29.42 in SSW 4.8 mph 10.4 mph 89 % 0.00 in
18:32 59.5 °F 55.9 °F 29.42 in SSW 5.1 mph 12.0 mph 88 % 0.00 in
18:37 59.6 °F 56.0 °F 29.41 in South 7.2 mph 12.7 mph 88 % 0.00 in
18:42 59.9 °F 56.3 °F 29.41 in SSW 4.6 mph 8.1 mph 88 % 0.00 in
18:47 60.0 °F 56.1 °F 29.41 in SSW 9.5 mph 13.0 mph 87 % 0.00 in
18:53 60.2 °F 56.0 °F 29.41 in SSE 4.6 mph 9.2 mph 86 % 0.00 in
18:58 60.2 °F 56.0 °F 29.41 in South 6.8 mph 11.5 mph 86 % 0.00 in
19:03 60.2 °F 56.0 °F 29.41 in South 5.7 mph 11.5 mph 86 % 0.00 in
19:08 60.2 °F 56.0 °F 29.42 in SSW 10.1 mph 13.8 mph 86 % 0.00 in
19:13 60.2 °F 56.0 °F 29.42 in SSW 8.6 mph 18.4 mph 86 % 0.00 in
19:18 60.3 °F 55.8 °F 29.42 in SW 9.2 mph 15.0 mph 85 % 0.00 in
19:23 60.4 °F 55.9 °F 29.42 in South 7.0 mph 14.0 mph 85 % 0.00 in
19:28 60.4 °F 55.5 °F 29.42 in South 6.0 mph 12.0 mph 84 % 0.00 in
19:33 60.5 °F 55.6 °F 29.43 in SSW 7.0 mph 12.0 mph 84 % 0.00 in
19:38 60.5 °F 55.6 °F 29.42 in SSW 3.0 mph 13.0 mph 84 % 0.00 in
19:43 60.5 °F 55.6 °F 29.42 in SSW 5.0 mph 9.0 mph 84 % 0.00 in
19:48 60.5 °F 55.6 °F 29.41 in SSW 4.8 mph 11.5 mph 84 % 0.00 in
19:53 60.5 °F 55.6 °F 29.42 in SSW 3.0 mph 8.0 mph 84 % 0.00 in
19:58 60.4 °F 55.5 °F 29.43 in South 5.3 mph 9.2 mph 84 % 0.00 in
20:03 60.2 °F 55.4 °F 29.42 in South 6.0 mph 12.0 mph 84 % 0.00 in
20:08 60.0 °F 55.2 °F 29.42 in SW 5.4 mph 9.2 mph 84 % 0.00 in
20:13 59.7 °F 54.9 °F 29.42 in SSW 3.0 mph 10.0 mph 84 % 0.00 in
20:18 59.5 °F 54.3 °F 29.41 in SSW 5.3 mph 6.9 mph 83 % 0.00 in
20:23 59.4 °F 54.2 °F 29.42 in SSW 5.0 mph 15.0 mph 83 % 0.00 in
20:28 59.3 °F 53.8 °F 29.43 in SSW 4.1 mph 9.2 mph 82 % 0.00 in
20:33 59.2 °F 53.7 °F 29.42 in SSW 5.0 mph 10.0 mph 82 % 0.00 in
20:38 59.1 °F 53.6 °F 29.42 in SSW 3.3 mph 9.2 mph 82 % 0.00 in
20:43 59.0 °F 53.5 °F 29.42 in SSW 2.0 mph 9.0 mph 82 % 0.00 in
20:48 58.9 °F 53.8 °F 29.41 in SSW 5.0 mph 12.0 mph 83 % 0.00 in
20:53 58.9 °F 53.7 °F 29.40 in South 5.0 mph 9.0 mph 83 % 0.00 in
20:58 58.8 °F 53.6 °F 29.42 in SSW 2.3 mph 4.6 mph 83 % 0.00 in
21:03 58.7 °F 53.5 °F 29.41 in SSW 4.9 mph 7.0 mph 83 % 0.00 in
21:08 58.6 °F 53.5 °F 29.41 in South 4.1 mph 6.9 mph 83 % 0.00 in
21:13 58.5 °F 53.4 °F 29.41 in SSW 5.9 mph 9.2 mph 83 % 0.00 in
21:18 58.5 °F 53.4 °F 29.41 in SSW 3.9 mph 6.9 mph 83 % 0.00 in
21:29 58.4 °F 53.3 °F 29.41 in South 4.4 mph 10.4 mph 83 % 0.00 in
21:34 58.4 °F 53.3 °F 29.40 in SSW 4.8 mph 8.0 mph 83 % 0.00 in
21:39 58.3 °F 52.8 °F 29.40 in SSW 7.5 mph 11.5 mph 82 % 0.00 in
21:44 58.4 °F 52.9 °F 29.40 in South 3.7 mph 5.8 mph 82 % 0.00 in
21:49 58.5 °F 53.0 °F 29.40 in South 3.1 mph 6.9 mph 82 % 0.00 in
21:54 58.5 °F 53.0 °F 29.39 in SSW 5.2 mph 5.8 mph 82 % 0.00 in
21:59 58.5 °F 52.7 °F 29.39 in SSW 4.9 mph 7.0 mph 81 % 0.00 in
22:04 58.5 °F 52.7 °F 29.39 in SW 2.8 mph 8.1 mph 81 % 0.00 in
22:09 58.4 °F 52.6 °F 29.38 in SSW 3.0 mph 5.8 mph 81 % 0.00 in
22:14 58.2 °F 52.4 °F 29.38 in SSW 2.3 mph 11.5 mph 81 % 0.00 in
22:19 58.2 °F 52.4 °F 29.38 in SSW 4.8 mph 8.1 mph 81 % 0.00 in
22:24 58.2 °F 52.4 °F 29.38 in SSE 4.5 mph 8.1 mph 81 % 0.00 in
22:29 58.2 °F 52.4 °F 29.38 in WSW 3.3 mph 6.0 mph 81 % 0.00 in
22:34 58.2 °F 52.4 °F 29.39 in SSW 5.8 mph 9.2 mph 81 % 0.00 in
22:40 58.2 °F 52.1 °F 29.39 in South 3.3 mph 6.9 mph 80 % 0.00 in
22:45 58.2 °F 52.1 °F 29.39 in SSW 5.4 mph 9.2 mph 80 % 0.00 in
22:50 58.1 °F 52.0 °F 29.39 in South 4.9 mph 5.8 mph 80 % 0.00 in
22:55 58.0 °F 51.9 °F 29.39 in SW 3.9 mph 6.9 mph 80 % 0.00 in
23:01 58.0 °F 51.9 °F 29.39 in WSW 7.6 mph 11.5 mph 80 % 0.00 in
23:06 58.0 °F 51.5 °F 29.39 in South 4.9 mph 11.5 mph 79 % 0.00 in
23:11 58.0 °F 51.5 °F 29.38 in SW 5.2 mph 9.2 mph 79 % 0.00 in
23:16 57.9 °F 51.4 °F 29.38 in SSW 6.8 mph 11.5 mph 79 % 0.00 in
23:21 57.9 °F 51.4 °F 29.38 in SSW 4.7 mph 9.2 mph 79 % 0.00 in
23:26 58.0 °F 51.5 °F 29.38 in South 6.5 mph 11.5 mph 79 % 0.00 in
23:31 58.1 °F 51.6 °F 29.37 in SSW 6.5 mph 9.2 mph 79 % 0.00 in
23:36 58.2 °F 51.7 °F 29.38 in SW 4.3 mph 6.9 mph 79 % 0.00 in
23:41 58.3 °F 51.5 °F 29.37 in SSW 7.2 mph 12.7 mph 78 % 0.00 in
23:46 58.5 °F 51.7 °F 29.37 in SW 3.3 mph 10.4 mph 78 % 0.00 in
23:51 58.7 °F 51.9 °F 29.37 in SSW 9.7 mph 16.1 mph 78 % 0.00 in
23:56 59.0 °F 52.1 °F 29.37 in SSE 2.0 mph 10.4 mph 78 % 0.00 in
Crab Meadow Weather
Compliments of Weather Underground - 3 mb

Script developed by  Jim McMurry - jmcmurry@mwt.net Adapted for the template by  Wim van der Kuil - Leuven-Template.eu

Weather Terms: Winter Storm Watch - Conditions are favorable for hazardous winter weather conditions including heavy snow, blizzard conditions, or significant accumulations of freezing rain or sleet. These watches are issued by the Weather Service Forecast Office in Upton and are usually issued 12 to 36 hours in advance of the event.